Aviation Digital Data Service (ADDS)

Output produced by METARs form (1058 UTC 11 May 2021)
found at http://www.aviationweather.gov/metar/data/
 
Forecast for: RJSI (HANAMAKI AIRPORT, JP)
Text: TAF RJSI 110507Z 1106/1212 24010KT 9999 -SHRA FEW020 BKN030 BKN040
Forecast period: 0600 to 1300 UTC 11 May 2021
Forecast type: FROM: standard forecast or significant change
Winds: from the WSW (240 degrees) at 12 MPH (10 knots; 5.1 m/s)
Visibility: 6 or more miles (10+ km)
Ceiling: 3000 feet AGL
Clouds: few clouds at 2000 feet AGL
broken clouds at 3000 feet AGL
broken clouds at 4000 feet AGL
Weather: -SHRA  (light rain showers)
Text: BECMG 1113/1115 02004KT
Forecast period: 1300 UTC 11 May 2021 to 0000 UTC 12 May 2021
Forecast type: BECOMING: Conditions expected to become as follows by 1500 UTC 11 May 2021
Winds: from the NNE (20 degrees) at 5 MPH (4 knots; 2.1 m/s)
Visibility: 6 or more miles (10+ km)
Ceiling: 3000 feet AGL
Clouds: few clouds at 2000 feet AGL
broken clouds at 3000 feet AGL
broken clouds at 4000 feet AGL
Weather: -SHRA  (light rain showers)
Text: BECMG 1200/1203 19013KT
Forecast period: 0000 to 1200 UTC 12 May 2021
Forecast type: BECOMING: Conditions expected to become as follows by 0300 UTC 12 May 2021
Winds: from the S (190 degrees) at 15 MPH (13 knots; 6.7 m/s)
Visibility: 6 or more miles (10+ km)
Ceiling: 3000 feet AGL
Clouds: few clouds at 2000 feet AGL
broken clouds at 3000 feet AGL
broken clouds at 4000 feet AGL
Weather: -SHRA  (light rain showers)